Overview Statistics Trail Chart Weather Telemetry Raw packets
 

This is the latest recevied weather packets stored in our database for station/object OE6ACM-10. If no packets are shown the sender has not sent any weather packets the latest 10 day(s).

<< 109 110 111 112 113 >>
Time Temp. Humidity Pressure Rain* Wind** Luminosity Snow
1787846050 38.33° C 100% 927.4 hPa - - - -
1787845750 38.89° C 100% 927.4 hPa - - - -
1787845450 38.89° C 100% 927.4 hPa - - - -
1787845150 39.44° C 100% 927.4 hPa - - - -
1787844850 40.56° C 100% 927.4 hPa - - - -
1787844550 41.11° C 100% 927.4 hPa - - - -
1787844250 41.11° C 100% 927.3 hPa - - - -
1787843950 41.67° C 95% 927.4 hPa - - - -
1787843650 42.78° C 87% 927.4 hPa - - - -
1787843350 42.22° C 92% 927.2 hPa - - - -
1787843050 42.22° C 92% 927.2 hPa - - - -
1787842750 43.33° C 87% 927.3 hPa - - - -
1787842450 43.33° C 86% 927.4 hPa - - - -
1787842150 43.33° C 87% 927.4 hPa - - - -
1787841850 42.78° C 91% 927.3 hPa - - - -
1787841550 42.22° C 95% 927.2 hPa - - - -
1787841250 43.33° C 90% 927.2 hPa - - - -
1787840950 42.78° C 92% 927.3 hPa - - - -
1787840650 42.78° C 91% 927.3 hPa - - - -
1787840350 42.78° C 96% 927.3 hPa - - - -
1787840050 42.78° C 93% 927.3 hPa - - - -
1787839750 42.22° C 100% 927.3 hPa - - - -
1787839450 42.22° C 100% 927.3 hPa - - - -
1787839150 41.67° C 100% 927.2 hPa - - - -
1787838850 42.22° C 100% 927.3 hPa - - - -

* Rain since midnight (hover to see other rain measurements)
** Current wind speed in m/s (hover to see current wind gust speed)